createdAt,value
2018-09-12T00:00:27.886Z,14.73
2018-09-12T00:02:57.551Z,14.71
2018-09-12T00:05:27.510Z,14.72
2018-09-12T00:07:57.039Z,14.69
2018-09-12T00:10:26.785Z,14.71
2018-09-12T00:12:56.905Z,14.74
2018-09-12T00:15:26.507Z,14.78
2018-09-12T00:17:56.518Z,14.81
2018-09-12T00:20:26.173Z,14.83
2018-09-12T00:22:56.151Z,14.88
2018-09-12T00:25:25.709Z,14.89
2018-09-12T00:27:55.328Z,14.87
2018-09-12T00:30:25.201Z,14.89
2018-09-12T00:32:54.919Z,14.98
2018-09-12T00:35:24.815Z,14.99
2018-09-12T00:37:54.508Z,15.03
2018-09-12T00:40:24.148Z,15.05
2018-09-12T00:42:57.827Z,15.04
2018-09-12T00:45:32.657Z,15.06
2018-09-12T00:48:05.833Z,15.11
2018-09-12T00:50:40.284Z,15.12
2018-09-12T00:53:12.631Z,15.11
2018-09-12T00:55:42.542Z,15.10
2018-09-12T00:58:15.001Z,15.08
2018-09-12T01:00:46.878Z,15.09
2018-09-12T01:03:19.160Z,15.05
2018-09-12T01:05:50.854Z,15.04
2018-09-12T01:08:22.976Z,15.03
2018-09-12T01:10:57.089Z,15.04
2018-09-12T01:13:30.726Z,15.05
2018-09-12T01:16:03.217Z,14.99
2018-09-12T01:18:35.738Z,14.95
2018-09-12T01:21:11.280Z,15.06
2018-09-12T01:23:42.511Z,15.09
2018-09-12T01:26:14.830Z,15.17
2018-09-12T01:28:48.414Z,15.23
2018-09-12T01:31:18.660Z,15.25
2018-09-12T01:33:50.232Z,15.13
2018-09-12T01:36:23.482Z,15.19
2018-09-12T01:38:54.309Z,15.10
2018-09-12T01:41:25.377Z,15.17
2018-09-12T01:43:56.706Z,15.17
2018-09-12T01:46:26.679Z,15.15
2018-09-12T01:48:57.958Z,15.19
2018-09-12T01:51:31.849Z,15.10
2018-09-12T01:54:04.688Z,15.13
2018-09-12T01:56:36.283Z,15.08
2018-09-12T01:59:11.191Z,15.14
2018-09-12T02:01:46.699Z,15.12
2018-09-12T02:04:21.248Z,15.05
2018-09-12T02:06:55.323Z,15.06
2018-09-12T02:09:29.764Z,14.99
2018-09-12T02:12:03.036Z,15.06
2018-09-12T02:14:37.160Z,14.86
2018-09-12T02:17:09.084Z,14.95
2018-09-12T02:19:39.560Z,14.99
2018-09-12T02:22:15.287Z,15.03
2018-09-12T02:24:48.659Z,15.09
2018-09-12T02:27:20.035Z,15.05
2018-09-12T02:29:50.166Z,15.08
2018-09-12T02:32:23.350Z,15.09
2018-09-12T02:34:55.748Z,15.00
2018-09-12T02:37:28.449Z,15.03
2018-09-12T02:40:00.174Z,14.97
2018-09-12T02:42:29.872Z,14.86
2018-09-12T02:45:03.260Z,14.79
2018-09-12T02:47:36.767Z,14.72
2018-09-12T02:50:12.708Z,14.73
2018-09-12T02:52:46.485Z,14.74
2018-09-12T02:55:19.678Z,14.72
2018-09-12T02:57:51.682Z,14.79
2018-09-12T03:00:24.359Z,14.82
2018-09-12T03:02:58.579Z,14.82
2018-09-12T03:05:34.085Z,14.86
2018-09-12T03:08:06.045Z,14.88
2018-09-12T03:10:39.838Z,14.88
2018-09-12T03:13:14.268Z,14.87
2018-09-12T03:15:47.474Z,14.85
2018-09-12T03:18:21.330Z,14.92
2018-09-12T03:20:53.965Z,14.91
2018-09-12T03:23:24.797Z,14.92
2018-09-12T03:26:02.177Z,14.94
2018-09-12T03:28:34.192Z,14.99
2018-09-12T03:31:07.970Z,15.01
2018-09-12T03:33:41.701Z,14.98
2018-09-12T03:36:17.499Z,15.06
2018-09-12T03:38:47.697Z,15.05
2018-09-12T03:41:22.020Z,15.08
2018-09-12T03:43:55.895Z,15.15
2018-09-12T03:46:30.427Z,15.06
2018-09-12T03:49:04.420Z,15.09
2018-09-12T03:51:39.379Z,15.11
2018-09-12T03:54:12.172Z,15.11
2018-09-12T03:56:42.880Z,15.09
2018-09-12T03:59:13.013Z,15.01
2018-09-12T04:01:47.817Z,14.96
2018-09-12T04:04:21.435Z,14.95
2018-09-12T04:06:56.485Z,14.96
2018-09-12T04:09:28.946Z,14.92
2018-09-12T04:11:58.678Z,14.92
2018-09-12T04:14:32.302Z,14.92
2018-09-12T04:17:02.992Z,14.91
2018-09-12T04:19:36.735Z,14.87
2018-09-12T04:22:06.403Z,14.95
2018-09-12T04:24:40.771Z,14.95
2018-09-12T04:27:11.054Z,15.02
2018-09-12T04:29:44.332Z,15.07
2018-09-12T04:32:19.222Z,15.03
2018-09-12T04:34:52.788Z,14.94
2018-09-12T04:37:28.725Z,14.98
2018-09-12T04:40:14.046Z,14.94
2018-09-12T04:42:44.968Z,15.01
2018-09-12T04:45:14.639Z,15.06
2018-09-12T04:47:46.097Z,15.03
2018-09-12T04:50:21.806Z,15.05
2018-09-12T04:52:53.802Z,14.93
2018-09-12T04:55:27.390Z,15.03
2018-09-12T04:57:58.499Z,15.21
2018-09-12T05:00:28.557Z,15.24
2018-09-12T05:02:58.358Z,15.27
2018-09-12T05:05:33.291Z,15.31
2018-09-12T05:08:05.753Z,15.30
2018-09-12T05:10:35.971Z,15.32
2018-09-12T05:13:07.277Z,15.33
2018-09-12T05:15:38.099Z,15.35
2018-09-12T05:18:08.364Z,15.37
2018-09-12T05:20:41.858Z,15.39
2018-09-12T05:23:14.503Z,15.33
2018-09-12T05:25:47.760Z,15.34
2018-09-12T05:28:20.258Z,15.39
2018-09-12T05:30:52.100Z,15.38
2018-09-12T05:33:27.185Z,15.38
2018-09-12T05:36:01.320Z,15.44
2018-09-12T05:38:31.748Z,15.42
2018-09-12T05:41:02.076Z,15.48
2018-09-12T05:43:33.452Z,15.49
2018-09-12T05:46:06.528Z,15.53
2018-09-12T05:48:40.171Z,15.57
2018-09-12T05:51:15.121Z,15.61
2018-09-12T05:53:45.614Z,15.63
2018-09-12T05:56:15.523Z,15.68
2018-09-12T05:58:44.898Z,15.60
2018-09-12T06:01:14.277Z,15.74
2018-09-12T06:03:44.348Z,15.74
2018-09-12T06:06:13.668Z,15.70
2018-09-12T06:08:43.038Z,15.78
2018-09-12T06:11:14.109Z,15.79
2018-09-12T06:13:43.514Z,15.81
2018-09-12T06:16:12.763Z,15.80
2018-09-12T06:18:42.167Z,15.88
2018-09-12T06:21:11.461Z,15.93
2018-09-12T06:23:40.847Z,15.84
2018-09-12T06:26:10.783Z,15.95
2018-09-12T06:28:40.102Z,16.13
2018-09-12T06:31:09.409Z,16.21
2018-09-12T06:33:39.400Z,16.27
2018-09-12T06:36:08.831Z,16.25
2018-09-12T06:38:38.315Z,16.24
2018-09-12T06:41:09.311Z,16.26
2018-09-12T06:43:39.627Z,16.32
2018-09-12T06:46:08.982Z,16.37
2018-09-12T06:48:38.967Z,16.34
2018-09-12T06:51:08.395Z,16.39
2018-09-12T06:53:37.940Z,16.38
2018-09-12T06:56:08.327Z,16.46
2018-09-12T06:58:37.586Z,16.47
2018-09-12T07:01:07.505Z,16.57
2018-09-12T07:03:36.901Z,16.51
2018-09-12T07:06:06.201Z,16.52
2018-09-12T07:08:35.674Z,16.49
2018-09-12T07:11:05.718Z,16.53
2018-09-12T07:13:35.005Z,16.25
2018-09-12T07:16:04.424Z,16.32
2018-09-12T07:18:33.890Z,16.39
2018-09-12T07:21:04.056Z,16.48
2018-09-12T07:23:33.450Z,16.38
2018-09-12T07:26:02.939Z,16.49
2018-09-12T07:28:32.407Z,16.53
2018-09-12T07:31:01.823Z,16.53
2018-09-12T07:33:31.321Z,16.41
2018-09-12T07:36:00.858Z,16.43
2018-09-12T07:38:30.563Z,16.44
2018-09-12T07:40:59.974Z,16.44
2018-09-12T07:43:29.354Z,16.41
2018-09-12T07:45:58.902Z,16.25
2018-09-12T07:48:28.483Z,16.16
2018-09-12T07:50:58.009Z,16.02
2018-09-12T07:53:27.527Z,15.88
2018-09-12T07:55:57.831Z,15.81
2018-09-12T07:58:27.416Z,15.67
2018-09-12T08:00:57.048Z,15.57
2018-09-12T08:03:26.601Z,15.48
2018-09-12T08:05:56.272Z,15.45
2018-09-12T08:08:25.841Z,15.47
2018-09-12T08:10:56.528Z,15.45
2018-09-12T08:13:26.037Z,15.52
2018-09-12T08:15:55.374Z,15.61
2018-09-12T08:18:24.796Z,15.64
2018-09-12T08:20:54.419Z,15.68
2018-09-12T08:23:24.299Z,15.76
2018-09-12T08:25:53.911Z,15.87
2018-09-12T08:28:23.371Z,15.83
2018-09-12T08:30:54.874Z,15.85
2018-09-12T08:33:24.636Z,15.79
2018-09-12T08:35:54.088Z,15.76
2018-09-12T08:38:23.639Z,15.75
2018-09-12T08:40:53.009Z,15.67
2018-09-12T08:43:22.804Z,15.65
2018-09-12T08:45:52.294Z,15.59
2018-09-12T08:48:21.807Z,15.54
2018-09-12T08:50:52.140Z,15.54
2018-09-12T08:53:21.865Z,15.52
2018-09-12T08:55:51.315Z,15.52
2018-09-12T08:58:20.685Z,15.56
2018-09-12T09:00:49.987Z,15.57
2018-09-12T09:03:20.333Z,15.56
2018-09-12T09:05:50.601Z,15.57
2018-09-12T09:08:19.896Z,15.58
2018-09-12T09:10:49.288Z,15.57
2018-09-12T09:13:19.626Z,15.65
2018-09-12T09:15:48.947Z,15.68
2018-09-12T09:18:18.340Z,15.71
2018-09-12T09:20:47.588Z,15.69
2018-09-12T09:23:16.874Z,15.70
2018-09-12T09:25:46.227Z,15.75
2018-09-12T09:28:15.518Z,15.72
2018-09-12T09:30:44.819Z,15.73
2018-09-12T09:33:14.327Z,15.66
2018-09-12T09:35:43.751Z,15.74
2018-09-12T09:38:12.841Z,15.79
2018-09-12T09:40:42.642Z,15.85
2018-09-12T09:43:11.977Z,15.85
2018-09-12T09:45:41.346Z,15.82
2018-09-12T09:48:10.694Z,15.82
2018-09-12T09:50:39.825Z,15.76
2018-09-12T09:53:09.126Z,15.77
2018-09-12T09:55:38.573Z,15.71
2018-09-12T09:58:07.887Z,15.73
2018-09-12T10:00:43.866Z,15.72
2018-09-12T10:03:18.309Z,15.65
2018-09-12T10:05:52.973Z,15.64
2018-09-12T10:08:27.706Z,15.67
2018-09-12T10:10:57.906Z,15.74
2018-09-12T10:13:27.412Z,15.85
2018-09-12T10:15:57.430Z,15.86
2018-09-12T10:18:26.937Z,15.89
2018-09-12T10:20:56.442Z,15.97
2018-09-12T10:23:26.283Z,16.01
2018-09-12T10:25:56.505Z,16.13
2018-09-12T10:28:26.356Z,16.25
2018-09-12T10:30:55.801Z,16.27
2018-09-12T10:33:25.984Z,16.14
2018-09-12T10:35:55.465Z,15.97
2018-09-12T10:38:24.823Z,15.71
2018-09-12T10:40:54.864Z,15.63
2018-09-12T10:43:24.358Z,15.49
2018-09-12T10:45:53.744Z,15.48
2018-09-12T10:48:24.291Z,15.49
2018-09-12T10:50:54.473Z,15.71
2018-09-12T10:53:24.197Z,15.77
2018-09-12T10:55:55.449Z,15.83
2018-09-12T10:58:24.921Z,16.00
2018-09-12T11:00:54.478Z,16.19
2018-09-12T11:03:24.975Z,16.34
2018-09-12T11:05:54.533Z,16.34
2018-09-12T11:08:24.275Z,16.22
2018-09-12T11:10:54.240Z,16.38
2018-09-12T11:13:23.606Z,16.39
2018-09-12T11:15:53.237Z,16.81
2018-09-12T11:18:22.802Z,16.87
2018-09-12T11:20:52.758Z,17.00
2018-09-12T11:23:22.178Z,17.12
2018-09-12T11:25:52.259Z,17.30
2018-09-12T11:28:21.605Z,17.45
2018-09-12T11:30:50.973Z,17.46
2018-09-12T11:33:20.248Z,17.27
2018-09-12T11:35:49.528Z,17.31
2018-09-12T11:38:19.110Z,17.20
2018-09-12T11:40:50.309Z,16.91
2018-09-12T11:43:20.099Z,16.87
2018-09-12T11:45:49.413Z,16.81
2018-09-12T11:48:18.657Z,16.81
2018-09-12T11:50:48.021Z,16.92
2018-09-12T11:53:17.244Z,16.96
2018-09-12T11:55:47.414Z,17.09
2018-09-12T11:58:16.777Z,16.97
2018-09-12T12:00:46.106Z,16.57
2018-09-12T12:03:16.152Z,16.80
2018-09-12T12:05:46.000Z,16.86
2018-09-12T12:08:15.304Z,16.93
2018-09-12T12:10:45.312Z,17.06
2018-09-12T12:13:14.551Z,17.19
2018-09-12T12:15:43.930Z,17.23
2018-09-12T12:18:17.315Z,17.24
2018-09-12T12:20:46.597Z,17.25
2018-09-12T12:23:15.934Z,17.13
2018-09-12T12:25:46.850Z,17.16
2018-09-12T12:28:16.231Z,17.22
2018-09-12T12:30:45.861Z,17.15
2018-09-12T12:33:15.674Z,17.00
2018-09-12T12:35:44.898Z,17.11
2018-09-12T12:38:14.141Z,17.32
2018-09-12T12:40:43.478Z,17.54
2018-09-12T12:43:12.875Z,17.85
2018-09-12T12:45:42.195Z,18.14
2018-09-12T12:48:12.382Z,18.46
2018-09-12T12:50:41.605Z,18.58
2018-09-12T12:53:10.869Z,18.68
2018-09-12T12:55:41.096Z,18.45
2018-09-12T12:58:10.313Z,18.34
2018-09-12T13:00:39.541Z,18.15
2018-09-12T13:03:09.465Z,17.94
2018-09-12T13:05:38.810Z,17.85
2018-09-12T13:08:08.233Z,17.76
2018-09-12T13:10:38.332Z,17.58
2018-09-12T13:13:07.690Z,17.43
2018-09-12T13:15:37.062Z,17.33
2018-09-12T13:18:07.469Z,17.19
2018-09-12T13:20:36.785Z,17.22
2018-09-12T13:23:06.193Z,17.21
2018-09-12T13:25:35.910Z,17.24
2018-09-12T13:28:06.124Z,17.11
2018-09-12T13:30:35.482Z,16.98
2018-09-12T13:33:05.140Z,17.02
2018-09-12T13:35:34.423Z,17.06
2018-09-12T13:38:03.753Z,17.09
2018-09-12T13:40:33.453Z,17.07
2018-09-12T13:43:02.907Z,17.09
2018-09-12T13:45:32.677Z,17.04
2018-09-12T13:48:02.260Z,16.98
2018-09-12T13:50:31.673Z,16.85
2018-09-12T13:53:01.198Z,16.82
2018-09-12T13:55:30.629Z,16.79
2018-09-12T13:58:00.169Z,16.77
2018-09-12T14:00:31.978Z,16.76
2018-09-12T14:03:03.071Z,16.76
2018-09-12T14:05:33.235Z,16.85
2018-09-12T14:08:02.687Z,17.00
2018-09-12T14:10:32.201Z,17.00
2018-09-12T14:13:01.733Z,17.00
2018-09-12T14:15:31.346Z,16.98
2018-09-12T14:18:00.980Z,16.91
2018-09-12T14:20:30.349Z,16.88
2018-09-12T14:22:59.988Z,16.89
2018-09-12T14:25:31.483Z,16.80
2018-09-12T14:28:00.809Z,16.81
2018-09-12T14:30:30.345Z,16.81
2018-09-12T14:32:59.787Z,16.91
2018-09-12T14:35:29.538Z,16.86
2018-09-12T14:37:59.220Z,16.94
2018-09-12T14:40:30.473Z,17.02
2018-09-12T14:42:59.933Z,17.00
2018-09-12T14:45:29.442Z,17.04
2018-09-12T14:47:59.427Z,17.09
2018-09-12T14:50:29.303Z,17.13
2018-09-12T14:52:58.605Z,17.09
2018-09-12T14:55:28.337Z,17.16
2018-09-12T14:57:57.962Z,17.17
2018-09-12T15:00:29.478Z,17.14
2018-09-12T15:02:59.634Z,17.20
2018-09-12T15:05:29.211Z,17.24
2018-09-12T15:07:58.890Z,17.24
2018-09-12T15:10:28.579Z,17.15
2018-09-12T15:13:02.331Z,17.12
2018-09-12T15:15:31.937Z,17.02
2018-09-12T15:18:01.707Z,17.00
2018-09-12T15:20:32.004Z,17.02
2018-09-12T15:23:01.408Z,16.95
2018-09-12T15:25:30.810Z,16.90
2018-09-12T15:28:00.198Z,16.84
2018-09-12T15:30:29.805Z,16.78
2018-09-12T15:32:59.205Z,16.70
2018-09-12T15:35:29.006Z,16.70
2018-09-12T15:37:58.833Z,16.69
2018-09-12T15:40:29.547Z,16.70
2018-09-12T15:43:13.469Z,16.62
2018-09-12T15:45:43.183Z,16.60
2018-09-12T15:48:12.649Z,16.62
2018-09-12T15:50:42.541Z,16.59
2018-09-12T15:53:12.081Z,16.61
2018-09-12T15:55:41.771Z,16.60
2018-09-12T15:58:11.098Z,16.56
2018-09-12T16:00:40.332Z,16.55
2018-09-12T16:03:10.201Z,16.51
2018-09-12T16:05:39.544Z,16.49
2018-09-12T16:08:08.825Z,16.45
2018-09-12T16:10:39.393Z,16.41
2018-09-12T16:13:09.087Z,16.40
2018-09-12T16:15:38.371Z,16.42
2018-09-12T16:18:07.721Z,16.45
2018-09-12T16:20:36.989Z,16.47
2018-09-12T16:23:06.414Z,16.45
2018-09-12T16:25:35.894Z,16.42
2018-09-12T16:28:05.269Z,16.40
2018-09-12T16:30:34.569Z,16.37
2018-09-12T16:33:04.148Z,16.33
2018-09-12T16:35:33.419Z,16.30
2018-09-12T16:38:03.054Z,16.25
2018-09-12T16:40:32.581Z,16.22
2018-09-12T16:43:02.211Z,16.16
2018-09-12T16:45:31.720Z,16.16
2018-09-12T16:48:01.674Z,16.12
2018-09-12T16:50:31.332Z,16.09
2018-09-12T16:53:00.878Z,16.10
2018-09-12T16:55:30.444Z,16.09
2018-09-12T16:57:59.996Z,16.02
2018-09-12T17:00:30.177Z,16.03
2018-09-12T17:02:59.884Z,16.01
2018-09-12T17:05:29.677Z,16.03
2018-09-12T17:07:59.608Z,15.99
2018-09-12T17:10:29.622Z,15.97
2018-09-12T17:12:59.545Z,15.95
2018-09-12T17:15:29.405Z,15.93
2018-09-12T17:17:59.329Z,15.91
2018-09-12T17:20:31.166Z,15.84
2018-09-12T17:23:00.764Z,15.80
2018-09-12T17:25:30.434Z,15.78
2018-09-12T17:28:00.205Z,15.70
2018-09-12T17:30:29.659Z,15.67
2018-09-12T17:32:59.377Z,15.63
2018-09-12T17:35:29.537Z,15.62
2018-09-12T17:37:59.464Z,15.52
2018-09-12T17:40:29.013Z,15.54
2018-09-12T17:42:58.822Z,15.54
2018-09-12T17:45:28.492Z,15.53
2018-09-12T17:47:57.984Z,15.55
2018-09-12T17:50:27.624Z,15.51
2018-09-12T17:52:58.500Z,15.57
2018-09-12T17:55:28.492Z,15.56
2018-09-12T17:57:58.196Z,15.61
2018-09-12T18:00:28.210Z,15.54
2018-09-12T18:02:59.225Z,15.55
2018-09-12T18:05:29.127Z,15.56
2018-09-12T18:07:58.949Z,15.45
2018-09-12T18:10:28.898Z,15.47
2018-09-12T18:12:59.051Z,15.50
2018-09-12T18:15:28.928Z,15.53
2018-09-12T18:17:58.825Z,15.45
2018-09-12T18:20:28.783Z,15.44
2018-09-12T18:22:58.501Z,15.44
2018-09-12T18:25:29.309Z,15.40
2018-09-12T18:28:00.036Z,15.49
2018-09-12T18:30:31.281Z,15.48
2018-09-12T18:33:00.924Z,15.47
2018-09-12T18:35:31.301Z,15.40
2018-09-12T18:38:01.090Z,15.33
2018-09-12T18:40:31.305Z,15.23
2018-09-12T18:43:01.525Z,15.21
2018-09-12T18:45:31.043Z,15.20
2018-09-12T18:48:00.421Z,15.20
2018-09-12T18:50:29.942Z,15.11
2018-09-12T18:53:00.022Z,15.09
2018-09-12T18:55:29.583Z,15.05
2018-09-12T18:57:59.438Z,14.97
2018-09-12T19:00:29.073Z,14.97
2018-09-12T19:02:59.936Z,14.97
2018-09-12T19:05:31.099Z,14.91
2018-09-12T19:08:00.819Z,14.93
2018-09-12T19:10:30.530Z,14.88
2018-09-12T19:13:01.059Z,14.88
2018-09-12T19:15:31.630Z,14.91
2018-09-12T19:18:01.685Z,14.86
2018-09-12T19:20:31.732Z,14.82
2018-09-12T19:23:01.339Z,14.82
2018-09-12T19:25:31.145Z,14.75
2018-09-12T19:28:00.825Z,14.72
2018-09-12T19:30:30.980Z,14.62
2018-09-12T19:33:00.620Z,14.61
2018-09-12T19:35:30.447Z,14.56
2018-09-12T19:38:00.132Z,14.50
2018-09-12T19:40:30.122Z,14.46
2018-09-12T19:42:59.878Z,14.34
2018-09-12T19:45:29.536Z,14.32
2018-09-12T19:47:59.200Z,14.33
2018-09-12T19:50:29.099Z,14.29
2018-09-12T19:52:59.137Z,14.28
2018-09-12T19:55:28.763Z,14.23
2018-09-12T19:57:58.956Z,14.22
2018-09-12T20:00:28.936Z,14.25
2018-09-12T20:02:58.528Z,14.21
2018-09-12T20:05:28.193Z,14.14
2018-09-12T20:07:57.888Z,14.17
2018-09-12T20:10:28.511Z,14.12
2018-09-12T20:12:58.451Z,14.10
2018-09-12T20:15:28.214Z,14.10
2018-09-12T20:17:58.884Z,14.09
2018-09-12T20:20:28.653Z,14.03
2018-09-12T20:22:58.745Z,14.05
2018-09-12T20:25:30.225Z,14.08
2018-09-12T20:27:59.800Z,14.13
2018-09-12T20:30:29.582Z,14.13
2018-09-12T20:33:00.701Z,14.15
2018-09-12T20:35:30.761Z,14.19
2018-09-12T20:38:00.396Z,14.15
2018-09-12T20:40:30.351Z,14.20
2018-09-12T20:43:00.084Z,14.19
2018-09-12T20:45:29.952Z,14.14
2018-09-12T20:47:59.506Z,14.13
2018-09-12T20:50:29.092Z,14.14
2018-09-12T20:52:59.000Z,14.10
2018-09-12T20:55:29.713Z,14.09
2018-09-12T20:58:00.357Z,14.07
2018-09-12T21:00:30.069Z,14.02
2018-09-12T21:02:59.766Z,13.99
2018-09-12T21:05:30.083Z,13.96
2018-09-12T21:07:59.733Z,13.91
2018-09-12T21:10:30.431Z,13.86
2018-09-12T21:13:01.059Z,13.85
2018-09-12T21:15:30.482Z,13.82
2018-09-12T21:18:01.685Z,13.82
2018-09-12T21:20:31.009Z,13.80
2018-09-12T21:23:00.562Z,13.78
2018-09-12T21:25:30.729Z,13.74
2018-09-12T21:28:01.260Z,13.73
2018-09-12T21:30:30.913Z,13.70
2018-09-12T21:33:00.631Z,13.73
2018-09-12T21:35:30.122Z,13.73
2018-09-12T21:38:06.162Z,13.74
2018-09-12T21:40:35.687Z,13.68
2018-09-12T21:43:05.048Z,13.71
2018-09-12T21:45:34.655Z,13.57
2018-09-12T21:48:04.031Z,13.51
2018-09-12T21:50:34.026Z,13.59
2018-09-12T21:53:05.049Z,13.52
2018-09-12T21:55:35.083Z,13.59
2018-09-12T21:58:04.749Z,13.65
2018-09-12T22:00:34.607Z,13.62
2018-09-12T22:03:03.991Z,13.70
2018-09-12T22:05:33.408Z,13.71
2018-09-12T22:08:03.482Z,13.69
2018-09-12T22:10:32.883Z,13.63
2018-09-12T22:13:02.326Z,13.64
2018-09-12T22:15:32.205Z,13.61
2018-09-12T22:18:03.321Z,13.49
2018-09-12T22:20:33.488Z,13.60
2018-09-12T22:23:03.030Z,13.62
2018-09-12T22:25:32.585Z,13.58
2018-09-12T22:28:02.924Z,13.54
2018-09-12T22:30:32.252Z,13.56
2018-09-12T22:33:01.813Z,13.56
2018-09-12T22:35:31.432Z,13.57
2018-09-12T22:38:00.941Z,13.55
2018-09-12T22:40:30.630Z,13.52
2018-09-12T22:43:00.204Z,13.51
2018-09-12T22:45:29.761Z,13.45
2018-09-12T22:47:59.303Z,13.40
2018-09-12T22:50:29.202Z,13.36
2018-09-12T22:52:58.668Z,13.41
2018-09-12T22:55:28.076Z,13.42
2018-09-12T22:57:57.849Z,13.40
2018-09-12T23:00:27.619Z,13.40
2018-09-12T23:02:57.144Z,13.38
2018-09-12T23:05:27.448Z,13.37
2018-09-12T23:07:56.874Z,13.38
2018-09-12T23:10:26.378Z,13.35
2018-09-12T23:12:55.907Z,13.27
2018-09-12T23:15:27.385Z,13.22
2018-09-12T23:17:57.158Z,13.20
2018-09-12T23:20:26.662Z,13.18
2018-09-12T23:22:56.105Z,13.16
2018-09-12T23:25:25.484Z,13.15
2018-09-12T23:29:19.247Z,13.08
2018-09-12T23:31:48.668Z,12.94
2018-09-12T23:34:18.447Z,12.93
2018-09-12T23:36:47.812Z,12.85
2018-09-12T23:39:17.099Z,12.85
2018-09-12T23:41:46.409Z,12.86
2018-09-12T23:44:15.738Z,12.84
2018-09-12T23:46:45.033Z,12.83
2018-09-12T23:49:14.328Z,12.78
2018-09-12T23:51:44.446Z,12.75
2018-09-12T23:54:13.780Z,12.71
2018-09-12T23:56:43.133Z,12.62
2018-09-12T23:59:12.347Z,12.57
